Base Marambio Centro Met. Antartico, Antarctica
Current Conditions -  °F | °C
As of 5:00 PM on Thursday 23 Oct 2014 (Local Time) from SAWH Reporting Station
Rain Showers Rain Showers  
Wind Chill: 30°   Ceiling: 4000
Heat Index: 43°   Visibility: 6mi
Dew Point: 30°   Wind: 45mph
Humidity: 61%   Direction: 230°SW
Pressure: 29.56"   Gusts: 49mph
Location:  64.23°S, 56.72°W
Report Text: SAWH 231700Z 23039G43KT 9999 VCSH FEW025BKN040 06/M01 Q1001
Loading
Personal Weather Stations






























Interactive Weather Map
Tropical Storm Tracking
New forecast layout! Learn more

10-Day Weather Forecast

Advertisements
Track Severe Weather on mobile